• Join FlightAware (Why Join?)
  • Login
  • US Flag 
02:25PM EST


 

Airport Tracker/Info


-or-


 

Live Flight TrackerFlight Track Log ✈ ASQ4633 ✈ 01-May-2013 ✈ KCLE - KBWI

Flight Track Log - Related Links

Times and Time Zones

All times are in EDT time to prevent confusion due to time zone crossing. See the ASQ4633 flight status page for this flight to view local times or setup timezone preferences in your user account.

Time Position Orientation Groundspeed Altitude Reporting Facility
EDT Latitude Longitude Course Direction KTS MPH feet Rate Location/Type
07:18PM 41.3814 -81.8839 175° South 184 212 2,000  Level Cleveland Center
07:19PM 41.3503 -81.8803 175° South 197 227 3,000 1,560 Climbing Cleveland Center
07:20PM 41.2964 -81.8294 145° Southeast 245 282 4,900 2,160 Climbing Cleveland Center
07:21PM 41.2975 -81.7383 89° East 213 245 7,800 2,520 Climbing Cleveland Center
07:22PM 41.2839 -81.6331 100° East 230 265 10,000 1,560 Climbing Cleveland Center
07:23PM 41.2136 -81.5714 147° Southeast 263 303 11,000 1,020 Climbing Cleveland Center
07:24PM 41.1453 -81.5261 153° Southeast 288 331 12,100 1,320 Climbing Cleveland Center
07:25PM 41.0478 -81.4669 155° Southeast 320 368 13,700 1,500 Climbing Cleveland Center
07:26PM 40.9583 -81.4108 155° Southeast 348 400 15,100 1,320 Climbing Cleveland Center
07:27PM 40.8672 -81.3519 154° Southeast 359 413 16,400 1,140 Climbing Cleveland Center
07:28PM 40.7736 -81.2961 156° South 364 419 17,400 780 Climbing Cleveland Center
07:29PM 40.6761 -81.2319 153° Southeast 377 434 18,000 900 Climbing Cleveland Center
07:30PM 40.5744 -81.1600 152° Southeast 382 440 19,300 1,200 Climbing Cleveland Center
07:31PM 40.4767 -81.1017 156° South 382 440 20,500 1,140 Climbing Cleveland Center
07:32PM 40.3747 -81.0383 155° Southeast 382 440 21,700 1,200 Climbing Cleveland Center
07:33PM 40.2769 -80.9750 154° Southeast 387 445 22,900 1,260 Climbing Cleveland Center
07:34PM 40.1792 -80.9119 154° Southeast 387 445 24,200 1,020 Climbing Cleveland Center
07:35PM 40.1211 -80.7922 122° Southeast 369 425 25,000 360 Climbing Cleveland Center
07:36PM 40.0858 -80.6536 108° East 374 430 25,000  Level Cleveland Center
07:37PM 40.0483 -80.5072 108° East 397 457 25,000  Level Cleveland Center
07:38PM 40.0086 -80.3553 109° East 420 483 25,000  Level Cleveland Center
07:40PM 39.9217 -80.0311 109° East 448 516 25,000  Level Washington Center
07:41PM 39.8792 -79.8772 110° East 448 516 25,000  Level Washington Center
07:42PM 39.8389 -79.7233 109° East 453 521 25,000  Level Washington Center
07:43PM 39.7961 -79.5697 110° East 453 521 25,000  Level Washington Center
07:44PM 39.7531 -79.4161 110° East 453 521 25,000  Level Washington Center
07:45PM 39.7119 -79.2628 109° East 453 521 25,000  Level Washington Center
07:46PM 39.6706 -79.1178 110° East 448 516 25,000  Level Washington Center
07:47PM 39.6372 -78.9706 106° East 435 501 25,000 -720 Level Washington Center
07:48PM 39.5981 -78.8019 107° East 435 501 23,600 -1,740 Descending Washington Center
07:49PM 39.5644 -78.6522 106° East 435 501 21,600 -2,100 Descending Washington Center
07:50PM 39.5344 -78.5111 105° East 423 487 19,400 -2,100 Descending Washington Center
07:51PM 39.5022 -78.3753 107° East 410 472 17,400 -2,040 Descending Washington Center
07:52PM 39.4742 -78.2397 105° East 396 456 15,500 -1,260 Descending Washington Center
07:53PM 39.4644 -78.1078 95° East 378 435 15,000 -300 Descending Washington Center
07:54PM 39.4608 -77.9758 92° East 371 427 15,000  Level Washington Center
07:55PM 39.4572 -77.8414 92° East 371 427 15,000 -540 Level Washington Center
07:56PM 39.4533 -77.7042 92° East 371 427 14,000 -1,260 Descending Washington Center
07:57PM 39.4514 -77.5750 91° East 365 420 12,600 -1,500 Descending Washington Center
07:58PM 39.4472 -77.4539 93° East 359 413 11,100 -840 Descending Washington Center
07:59PM 39.4467 -77.3519 90° East 319 367 11,000 -120 Descending Washington Center
08:00PM 39.4500 -77.3167 83° East 288 331 11,000  Level Potomac TRACON
08:01PM 39.4667 -77.2167 78° East 284 327 11,000 -780 Level Potomac TRACON
08:02PM 39.4833 -77.1000 79° East 270 311 9,400 -1,560 Descending Potomac TRACON
08:03PM 39.5000 -77.0000 78° East 279 321 7,800 -1,620 Descending Potomac TRACON
08:04PM 39.5000 -76.9333 90° East 273 314 6,400 -1,620 Descending Potomac TRACON
08:05PM 39.4333 -76.9167 169° South 259 298 4,800 -1,200 Descending Potomac TRACON
08:06PM 39.3500 -76.9000 171° South 249 287 4,000 -600 Descending Potomac TRACON
08:07PM 39.2833 -76.8833 169° South 229 264 3,600 -540 Descending Potomac TRACON
08:08PM 39.2333 -76.8833 180° South 224 258 3,000 -720 Descending Potomac TRACON
08:09PM 39.1833 -76.8333 142° Southeast 200 230 2,200 -720 Descending Potomac TRACON
08:10PM 39.1833 -76.7833 90° East 135 155 1,600 -780 Descending Potomac TRACON
08:11PM 39.1833 -76.7333 90° East 129 148 800 -840 Descending Potomac TRACON
08:13PM 39.1667 -76.6667 142° Southeast  Level FlightAware Approximate
08:20PM 39.1754 -76.6683 142° Southeast  Level Estimated
08:21PM 39.1754 -76.6683 142° Southeast  Level Estimated
08:22PM 39.1754 -76.6683 142° Southeast  Level Estimated